createdAt,value
2023-05-06T00:00:21.124Z,3.57
2023-05-06T00:02:47.839Z,3.27
2023-05-06T00:05:14.964Z,2.90
2023-05-06T00:07:42.042Z,2.70
2023-05-06T00:10:09.165Z,2.67
2023-05-06T00:12:36.202Z,2.70
2023-05-06T00:15:03.170Z,2.87
2023-05-06T00:17:29.781Z,3.40
2023-05-06T00:19:58.856Z,3.17
2023-05-06T00:22:25.448Z,3.90
2023-05-06T00:24:52.164Z,3.03
2023-05-06T00:27:18.801Z,2.90
2023-05-06T00:29:46.157Z,3.23
2023-05-06T00:32:12.749Z,2.87
2023-05-06T00:34:39.595Z,2.50
2023-05-06T00:37:06.146Z,2.63
2023-05-06T00:39:33.722Z,2.93
2023-05-06T00:42:02.311Z,1.83
2023-05-06T00:44:29.940Z,2.60
2023-05-06T00:46:57.421Z,2.40
2023-05-06T00:49:24.422Z,2.97
2023-05-06T00:51:52.478Z,2.30
2023-05-06T00:54:19.636Z,3.30
2023-05-06T00:56:46.258Z,3.83
2023-05-06T00:59:12.904Z,3.13
2023-05-06T01:01:39.979Z,2.80
2023-05-06T01:04:21.675Z,2.63
2023-05-06T01:07:01.201Z,3.23
2023-05-06T01:09:35.003Z,2.70
2023-05-06T01:12:18.807Z,2.60
2023-05-06T01:15:06.771Z,3.43
2023-05-06T01:17:34.691Z,3.00
2023-05-06T01:20:01.950Z,3.70
2023-05-06T01:22:29.342Z,2.93
2023-05-06T01:24:55.965Z,2.83
2023-05-06T01:27:23.290Z,3.30
2023-05-06T01:29:49.878Z,3.60
2023-05-06T01:32:19.363Z,3.07
2023-05-06T01:34:54.875Z,3.30
2023-05-06T01:37:32.416Z,3.60
2023-05-06T01:40:00.381Z,3.03
2023-05-06T01:42:27.556Z,2.80
2023-05-06T01:44:55.844Z,3.23
2023-05-06T01:47:22.464Z,3.23
2023-05-06T01:49:49.974Z,3.20
2023-05-06T01:52:16.630Z,3.30
2023-05-06T01:54:43.159Z,3.37
2023-05-06T01:57:09.776Z,3.33
2023-05-06T01:59:36.522Z,3.37
2023-05-06T02:02:03.225Z,3.97
2023-05-06T02:04:30.655Z,3.40
2023-05-06T02:06:57.262Z,3.37
2023-05-06T02:09:23.904Z,3.33
2023-05-06T02:11:50.399Z,3.30
2023-05-06T02:14:16.971Z,3.60
2023-05-06T02:16:43.726Z,3.10
2023-05-06T02:19:10.448Z,3.17
2023-05-06T02:21:37.053Z,3.63
2023-05-06T02:24:03.626Z,2.90
2023-05-06T02:26:30.566Z,3.47
2023-05-06T02:28:57.101Z,2.90
2023-05-06T02:31:23.818Z,2.77
2023-05-06T02:33:50.542Z,3.10
2023-05-06T02:36:17.243Z,3.50
2023-05-06T02:38:43.720Z,4.33
2023-05-06T02:41:10.931Z,2.80
2023-05-06T02:43:37.536Z,2.87
2023-05-06T02:46:04.105Z,4.37
2023-05-06T02:48:30.923Z,3.10
2023-05-06T02:50:57.501Z,3.23
2023-05-06T02:53:24.049Z,2.77
2023-05-06T02:55:50.537Z,3.03
2023-05-06T02:58:17.267Z,3.17
2023-05-06T03:00:44.017Z,3.10
2023-05-06T03:03:10.527Z,2.87
2023-05-06T03:05:37.056Z,2.23
2023-05-06T03:08:03.839Z,3.20
2023-05-06T03:10:30.485Z,3.17
2023-05-06T03:12:57.212Z,2.80
2023-05-06T03:15:23.810Z,3.60
2023-05-06T03:17:50.601Z,3.33
2023-05-06T03:20:17.304Z,3.73
2023-05-06T03:22:43.830Z,3.50
2023-05-06T03:25:10.610Z,3.27
2023-05-06T03:27:37.349Z,3.00
2023-05-06T03:30:04.447Z,3.50
2023-05-06T03:32:31.181Z,2.90
2023-05-06T03:34:58.037Z,3.40
2023-05-06T03:37:24.672Z,3.50
2023-05-06T03:39:51.217Z,3.47
2023-05-06T03:42:17.877Z,3.03
2023-05-06T03:44:44.558Z,2.80
2023-05-06T03:47:11.464Z,2.93
2023-05-06T03:49:38.193Z,3.73
2023-05-06T03:52:05.178Z,3.50
2023-05-06T03:54:31.858Z,3.33
2023-05-06T03:56:58.652Z,3.17
2023-05-06T03:59:25.197Z,3.37
2023-05-06T04:01:51.763Z,3.80
2023-05-06T04:04:18.437Z,4.13
2023-05-06T04:06:44.985Z,4.20
2023-05-06T04:09:11.628Z,3.50
2023-05-06T04:11:38.056Z,3.60
2023-05-06T04:14:04.727Z,4.47
2023-05-06T04:16:31.410Z,3.80
2023-05-06T04:18:58.603Z,4.23
2023-05-06T04:21:25.102Z,10.23
2023-05-06T04:23:51.687Z,9.93
2023-05-06T04:26:18.385Z,7.00
2023-05-06T04:28:44.886Z,5.40
2023-05-06T04:31:11.788Z,3.93
2023-05-06T04:33:38.397Z,3.77
2023-05-06T04:36:06.158Z,3.00
2023-05-06T04:38:32.950Z,3.17
2023-05-06T04:40:59.692Z,2.80
2023-05-06T04:43:29.700Z,3.90
2023-05-06T04:45:56.451Z,3.37
2023-05-06T04:48:23.339Z,3.10
2023-05-06T04:50:51.146Z,4.03
2023-05-06T04:53:17.800Z,3.20
2023-05-06T04:55:44.537Z,3.33
2023-05-06T04:58:11.292Z,3.40
2023-05-06T05:00:37.933Z,2.90
2023-05-06T05:03:04.807Z,3.10
2023-05-06T05:05:33.024Z,3.50
2023-05-06T05:07:59.674Z,3.10
2023-05-06T05:10:26.412Z,3.00
2023-05-06T05:12:52.982Z,3.57
2023-05-06T05:15:21.381Z,3.20
2023-05-06T05:17:48.953Z,3.55
2023-05-06T05:20:15.542Z,3.37
2023-05-06T05:22:42.466Z,3.10
2023-05-06T05:25:09.141Z,2.77
2023-05-06T05:27:36.627Z,2.93
2023-05-06T05:30:03.810Z,3.00
2023-05-06T05:32:30.684Z,4.93
2023-05-06T05:34:57.205Z,3.90
2023-05-06T05:37:23.822Z,3.60
2023-05-06T05:39:50.501Z,4.17
2023-05-06T05:42:17.175Z,5.60
2023-05-06T05:44:43.912Z,6.40
2023-05-06T05:47:10.772Z,3.83
2023-05-06T05:49:37.289Z,4.00
2023-05-06T05:52:04.365Z,3.33
2023-05-06T05:54:30.937Z,3.20
2023-05-06T05:56:58.176Z,3.07
2023-05-06T05:59:25.219Z,2.73
2023-05-06T06:01:51.853Z,3.00
2023-05-06T06:04:18.555Z,2.70
2023-05-06T06:06:45.219Z,3.13
2023-05-06T06:09:12.330Z,2.50
2023-05-06T06:11:40.298Z,3.27
2023-05-06T06:14:07.097Z,4.33
2023-05-06T06:16:33.829Z,2.50
2023-05-06T06:19:00.408Z,2.63
2023-05-06T06:21:28.031Z,2.80
2023-05-06T06:23:54.500Z,2.87
2023-05-06T06:26:21.648Z,3.00
2023-05-06T06:28:48.313Z,3.43
2023-05-06T06:31:15.078Z,3.03
2023-05-06T06:33:41.592Z,2.77
2023-05-06T06:36:08.832Z,2.40
2023-05-06T06:38:35.819Z,2.37
2023-05-06T06:41:02.633Z,2.93
2023-05-06T06:43:29.232Z,2.37
2023-05-06T06:45:56.423Z,2.20
2023-05-06T06:48:23.175Z,2.50
2023-05-06T06:50:49.889Z,2.40
2023-05-06T06:53:17.845Z,3.20
2023-05-06T06:55:45.452Z,2.60
2023-05-06T06:58:12.353Z,2.70
2023-05-06T07:00:39.008Z,2.80
2023-05-06T07:03:05.766Z,2.80
2023-05-06T07:05:32.348Z,2.50
2023-05-06T07:07:58.907Z,2.60
2023-05-06T07:10:25.981Z,2.00
2023-05-06T07:12:52.775Z,2.37
2023-05-06T07:15:19.414Z,2.70
2023-05-06T07:17:46.011Z,2.90
2023-05-06T07:20:13.146Z,1.93
2023-05-06T07:22:41.410Z,2.43
2023-05-06T07:25:08.793Z,2.53
2023-05-06T07:27:35.597Z,2.03
2023-05-06T07:30:02.427Z,2.60
2023-05-06T07:32:29.052Z,2.40
2023-05-06T07:34:55.830Z,2.30
2023-05-06T07:37:22.573Z,3.57
2023-05-06T07:39:49.072Z,2.60
2023-05-06T07:42:15.792Z,2.67
2023-05-06T07:44:42.508Z,2.83
2023-05-06T07:47:09.376Z,2.37
2023-05-06T07:49:36.249Z,2.63
2023-05-06T07:52:03.719Z,2.67
2023-05-06T07:54:31.807Z,2.47
2023-05-06T07:56:58.653Z,2.23
2023-05-06T07:59:25.667Z,2.40
2023-05-06T08:01:52.403Z,2.63
2023-05-06T08:04:19.389Z,2.70
2023-05-06T08:06:46.308Z,2.90
2023-05-06T08:09:14.879Z,2.77
2023-05-06T08:11:50.049Z,2.83
2023-05-06T08:14:16.697Z,2.83
2023-05-06T08:16:43.534Z,2.40
2023-05-06T08:19:10.464Z,2.53
2023-05-06T08:21:37.079Z,2.53
2023-05-06T08:24:04.003Z,3.00
2023-05-06T08:26:30.666Z,2.87
2023-05-06T08:28:57.858Z,2.43
2023-05-06T08:31:24.667Z,3.30
2023-05-06T08:33:54.715Z,2.97
2023-05-06T08:36:22.511Z,2.87
2023-05-06T08:38:50.940Z,3.20
2023-05-06T08:41:19.515Z,2.73
2023-05-06T08:43:47.975Z,2.43
2023-05-06T08:46:14.906Z,2.90
2023-05-06T08:48:42.431Z,2.63
2023-05-06T08:51:09.692Z,2.70
2023-05-06T08:53:36.587Z,2.87
2023-05-06T08:56:06.615Z,3.13
2023-05-06T08:58:35.216Z,2.60
2023-05-06T09:01:03.201Z,3.73
2023-05-06T09:03:30.234Z,2.70
2023-05-06T09:05:57.901Z,2.87
2023-05-06T09:08:24.539Z,2.47
2023-05-06T09:10:51.082Z,2.70
2023-05-06T09:13:19.272Z,2.83
2023-05-06T09:15:47.840Z,3.20
2023-05-06T09:18:16.034Z,2.60
2023-05-06T09:20:47.908Z,2.30
2023-05-06T09:23:16.795Z,2.87
2023-05-06T09:25:46.167Z,2.30
2023-05-06T09:28:13.629Z,2.90
2023-05-06T09:30:45.038Z,2.93
2023-05-06T09:33:12.656Z,2.73
2023-05-06T09:35:41.976Z,3.30
2023-05-06T09:38:09.246Z,3.47
2023-05-06T09:40:36.983Z,2.90
2023-05-06T09:43:04.646Z,2.60
2023-05-06T09:45:32.826Z,2.90
2023-05-06T09:47:59.481Z,3.27
2023-05-06T09:50:26.887Z,2.97
2023-05-06T09:52:54.900Z,2.73
2023-05-06T09:55:22.749Z,3.57
2023-05-06T09:57:49.830Z,3.23
2023-05-06T10:00:17.366Z,3.53
2023-05-06T10:02:45.323Z,3.40
2023-05-06T10:05:13.355Z,2.93
2023-05-06T10:07:42.048Z,3.23
2023-05-06T10:10:11.162Z,3.20
2023-05-06T10:12:38.120Z,2.90
2023-05-06T10:15:05.876Z,3.07
2023-05-06T10:17:33.129Z,3.57
2023-05-06T10:20:01.300Z,3.40
2023-05-06T10:23:03.991Z,3.13
2023-05-06T10:25:42.613Z,2.70
2023-05-06T10:28:12.450Z,2.90
2023-05-06T10:30:57.264Z,2.83
2023-05-06T10:33:24.457Z,3.03
2023-05-06T10:35:57.304Z,3.17
2023-05-06T10:38:37.949Z,3.90
2023-05-06T10:41:04.646Z,3.63
2023-05-06T10:43:32.972Z,4.40
2023-05-06T10:46:10.139Z,3.90
2023-05-06T10:48:38.715Z,3.63
2023-05-06T10:51:14.277Z,3.90
2023-05-06T10:54:03.037Z,4.40
2023-05-06T10:56:40.927Z,4.40
2023-05-06T10:59:08.833Z,4.10
2023-05-06T11:01:44.739Z,5.13
2023-05-06T11:04:13.425Z,4.13
2023-05-06T11:06:48.126Z,4.80
2023-05-06T11:09:26.927Z,4.13
2023-05-06T11:12:01.804Z,4.90
2023-05-06T11:14:37.913Z,4.60
2023-05-06T11:17:09.167Z,4.30
2023-05-06T11:19:37.486Z,5.17
2023-05-06T11:22:05.957Z,4.80
2023-05-06T11:24:39.612Z,4.37
2023-05-06T11:27:06.295Z,5.37
2023-05-06T11:29:33.169Z,5.10
2023-05-06T11:31:59.968Z,5.43
2023-05-06T11:34:31.137Z,5.37
2023-05-06T11:37:03.638Z,5.00
2023-05-06T11:39:36.622Z,4.90
2023-05-06T11:42:07.336Z,5.37
2023-05-06T11:44:36.040Z,5.17
2023-05-06T11:47:05.887Z,5.27
2023-05-06T11:49:37.530Z,5.00
2023-05-06T11:52:04.435Z,5.60
2023-05-06T11:54:34.860Z,18.40
2023-05-06T11:57:02.107Z,6.40
2023-05-06T11:59:32.904Z,5.90
2023-05-06T12:02:01.695Z,6.77
2023-05-06T12:04:28.654Z,5.83
2023-05-06T12:06:57.085Z,5.90
2023-05-06T12:09:24.913Z,5.90
2023-05-06T12:11:51.838Z,6.37
2023-05-06T12:14:18.873Z,7.77
2023-05-06T12:16:45.499Z,7.10
2023-05-06T12:19:12.063Z,6.33
2023-05-06T12:21:39.533Z,6.33
2023-05-06T12:24:06.442Z,6.50
2023-05-06T12:26:46.802Z,6.87
2023-05-06T12:29:17.283Z,5.60
2023-05-06T12:31:47.493Z,6.63
2023-05-06T12:34:16.176Z,6.73
2023-05-06T12:36:43.946Z,6.23
2023-05-06T12:39:11.822Z,5.70
2023-05-06T12:41:44.051Z,7.20
2023-05-06T12:44:39.178Z,5.87
2023-05-06T12:47:18.827Z,6.67
2023-05-06T12:49:58.162Z,6.70
2023-05-06T12:52:27.620Z,6.40
2023-05-06T12:54:54.418Z,8.43
2023-05-06T12:57:21.588Z,8.63
2023-05-06T12:59:48.622Z,7.30
2023-05-06T13:02:15.523Z,7.00
2023-05-06T13:04:42.753Z,6.57
2023-05-06T13:07:09.303Z,7.00
2023-05-06T13:09:35.937Z,7.40
2023-05-06T13:12:04.867Z,7.17
2023-05-06T13:14:31.666Z,7.10
2023-05-06T13:17:01.403Z,6.87
2023-05-06T13:19:32.977Z,6.83
2023-05-06T13:22:00.624Z,6.60
2023-05-06T13:24:27.670Z,7.20
2023-05-06T13:26:54.468Z,7.27
2023-05-06T13:29:21.010Z,6.50
2023-05-06T13:31:47.715Z,7.57
2023-05-06T13:34:14.326Z,7.23
2023-05-06T13:36:42.355Z,7.10
2023-05-06T13:39:09.065Z,7.53
2023-05-06T13:41:35.610Z,6.70
2023-05-06T13:44:02.251Z,7.37
2023-05-06T13:46:29.111Z,7.10
2023-05-06T13:48:55.736Z,7.27
2023-05-06T13:51:22.362Z,6.33
2023-05-06T13:53:48.931Z,6.90
2023-05-06T13:56:15.683Z,6.13
2023-05-06T13:58:42.326Z,6.20
2023-05-06T14:01:09.279Z,5.63
2023-05-06T14:03:35.866Z,5.30
2023-05-06T14:06:02.643Z,6.50
2023-05-06T14:08:29.339Z,6.63
2023-05-06T14:10:56.023Z,5.80
2023-05-06T14:13:22.683Z,6.30
2023-05-06T14:15:49.641Z,6.03
2023-05-06T14:18:16.365Z,5.93
2023-05-06T14:20:42.871Z,6.40
2023-05-06T14:23:09.457Z,6.13
2023-05-06T14:25:36.157Z,5.10
2023-05-06T14:28:02.633Z,5.80
2023-05-06T14:30:30.115Z,5.33
2023-05-06T14:32:56.704Z,6.70
2023-05-06T14:35:23.359Z,6.00
2023-05-06T14:37:50.031Z,5.33
2023-05-06T14:40:17.262Z,5.43
2023-05-06T14:42:45.128Z,4.57
2023-05-06T14:45:13.183Z,5.37
2023-05-06T14:47:40.459Z,4.60
2023-05-06T14:50:09.489Z,4.33
2023-05-06T14:52:37.540Z,4.60
2023-05-06T14:55:05.319Z,4.57
2023-05-06T14:57:31.883Z,7.43
2023-05-06T14:59:58.887Z,6.07
2023-05-06T15:02:25.551Z,4.40
2023-05-06T15:04:52.159Z,5.00
2023-05-06T15:07:18.870Z,3.63
2023-05-06T15:09:45.394Z,4.13
2023-05-06T15:12:12.271Z,4.13
2023-05-06T15:14:41.987Z,3.93
2023-05-06T15:17:08.603Z,3.40
2023-05-06T15:19:35.509Z,3.90
2023-05-06T15:22:02.102Z,3.90
2023-05-06T15:24:28.608Z,4.20
2023-05-06T15:26:55.290Z,4.10
2023-05-06T15:29:22.165Z,3.73
2023-05-06T15:31:48.706Z,3.57
2023-05-06T15:34:15.695Z,3.23
2023-05-06T15:36:42.493Z,3.43
2023-05-06T15:39:09.086Z,3.40
2023-05-06T15:41:37.679Z,3.57
2023-05-06T15:44:06.191Z,4.60
2023-05-06T15:46:33.312Z,4.83
2023-05-06T15:51:31.136Z,3.57
2023-05-06T15:53:58.192Z,5.23
2023-05-06T15:56:26.878Z,3.67
2023-05-06T15:58:55.028Z,3.53
2023-05-06T16:01:33.577Z,5.00
2023-05-06T16:04:08.684Z,4.57
2023-05-06T16:06:35.574Z,3.20
2023-05-06T16:09:02.265Z,3.83
2023-05-06T16:11:28.978Z,4.07
2023-05-06T16:13:56.492Z,4.70
2023-05-06T16:16:23.245Z,7.10
2023-05-06T16:18:50.284Z,4.73
2023-05-06T16:21:16.887Z,4.33
2023-05-06T16:23:43.524Z,4.37
2023-05-06T16:26:10.102Z,3.87
2023-05-06T16:28:38.134Z,3.87
2023-05-06T16:31:06.740Z,4.23
2023-05-06T16:33:33.389Z,3.90
2023-05-06T16:35:59.919Z,3.80
2023-05-06T16:38:26.491Z,3.50
2023-05-06T16:40:53.285Z,4.50
2023-05-06T16:43:20.318Z,4.90
2023-05-06T16:45:46.976Z,4.33
2023-05-06T16:48:14.332Z,3.40
2023-05-06T16:50:41.505Z,3.43
2023-05-06T16:53:08.637Z,6.80
2023-05-06T16:55:35.193Z,6.83
2023-05-06T16:58:02.390Z,4.47
2023-05-06T17:00:29.166Z,5.93
2023-05-06T17:02:56.140Z,4.70
2023-05-06T17:05:22.912Z,4.43
2023-05-06T17:07:50.765Z,4.00
2023-05-06T17:10:18.028Z,3.70
2023-05-06T17:12:44.851Z,4.73
2023-05-06T17:15:12.203Z,4.60
2023-05-06T17:17:39.757Z,4.97
2023-05-06T17:20:09.373Z,5.07
2023-05-06T17:22:36.268Z,5.50
2023-05-06T17:25:03.626Z,4.73
2023-05-06T17:27:30.343Z,5.10
2023-05-06T17:29:56.949Z,5.20
2023-05-06T17:32:23.902Z,4.97
2023-05-06T17:34:50.712Z,3.70
2023-05-06T17:37:17.479Z,3.60
2023-05-06T17:39:44.113Z,8.10
2023-05-06T17:42:10.927Z,8.00
2023-05-06T17:44:38.286Z,5.40
2023-05-06T17:47:04.961Z,5.20
2023-05-06T17:49:32.719Z,5.57
2023-05-06T17:52:00.329Z,5.60
2023-05-06T17:54:32.596Z,6.60
2023-05-06T17:57:00.861Z,6.40
2023-05-06T17:59:39.251Z,5.37
2023-05-06T18:02:08.520Z,4.80
2023-05-06T18:04:35.405Z,5.80
2023-05-06T18:07:01.970Z,6.00
2023-05-06T18:09:28.594Z,6.30
2023-05-06T18:11:55.236Z,6.27
2023-05-06T18:14:21.790Z,5.90
2023-05-06T18:16:48.391Z,5.30
2023-05-06T18:19:15.082Z,5.50
2023-05-06T18:21:41.832Z,5.23
2023-05-06T18:24:16.017Z,4.70
2023-05-06T18:26:45.798Z,4.40
2023-05-06T18:29:13.149Z,4.97
2023-05-06T18:31:39.823Z,5.57
2023-05-06T18:34:06.465Z,5.40
2023-05-06T18:36:35.105Z,8.10
2023-05-06T18:39:02.597Z,6.80
2023-05-06T18:41:29.185Z,5.70
2023-05-06T18:43:55.897Z,4.90
2023-05-06T18:46:22.827Z,5.77
2023-05-06T18:48:49.447Z,5.47
2023-05-06T18:51:17.310Z,4.37
2023-05-06T18:53:44.935Z,4.40
2023-05-06T18:56:11.596Z,4.43
2023-05-06T18:58:39.212Z,4.93
2023-05-06T19:01:09.889Z,4.60
2023-05-06T19:03:37.585Z,4.13
2023-05-06T19:06:08.216Z,5.50
2023-05-06T19:08:35.501Z,5.97
2023-05-06T19:11:02.652Z,6.10
2023-05-06T19:13:29.323Z,6.57
2023-05-06T19:15:57.122Z,5.40
2023-05-06T19:18:23.922Z,5.20
2023-05-06T19:20:50.675Z,6.00
2023-05-06T19:23:17.246Z,4.60
2023-05-06T19:25:43.867Z,6.00
2023-05-06T19:28:10.765Z,5.50
2023-05-06T19:30:37.513Z,5.10
2023-05-06T19:33:04.694Z,5.87
2023-05-06T19:35:31.473Z,7.40
2023-05-06T19:37:58.372Z,8.03
2023-05-06T19:40:25.112Z,10.07
2023-05-06T19:42:52.329Z,6.90
2023-05-06T19:45:19.584Z,7.03
2023-05-06T19:47:46.456Z,6.30
2023-05-06T19:50:13.411Z,5.13
2023-05-06T19:52:42.858Z,5.00
2023-05-06T19:55:09.877Z,5.93
2023-05-06T19:57:37.569Z,5.10
2023-05-06T20:00:09.858Z,5.40
2023-05-06T20:02:38.021Z,6.63
2023-05-06T20:05:06.412Z,7.10
2023-05-06T20:07:33.800Z,9.50
2023-05-06T20:10:00.452Z,9.13
2023-05-06T20:12:27.201Z,11.50
2023-05-06T20:14:54.727Z,10.40
2023-05-06T20:17:21.615Z,6.67
2023-05-06T20:19:48.541Z,5.17
2023-05-06T20:22:15.158Z,5.50
2023-05-06T20:24:42.718Z,4.87
2023-05-06T20:27:09.758Z,5.67
2023-05-06T20:29:36.353Z,6.10
2023-05-06T20:32:02.993Z,5.00
2023-05-06T20:34:29.923Z,5.67
2023-05-06T20:36:56.770Z,5.17
2023-05-06T20:39:23.753Z,5.07
2023-05-06T20:41:50.465Z,3.83
2023-05-06T20:44:16.929Z,4.70
2023-05-06T20:46:44.221Z,4.13
2023-05-06T20:49:10.889Z,5.77
2023-05-06T20:51:37.454Z,6.40
2023-05-06T20:54:04.203Z,5.57
2023-05-06T20:56:30.843Z,4.70
2023-05-06T20:58:57.439Z,4.50
2023-05-06T21:01:25.328Z,4.83
2023-05-06T21:03:52.204Z,6.57
2023-05-06T21:06:19.230Z,4.90
2023-05-06T21:08:46.513Z,5.93
2023-05-06T21:11:13.557Z,5.87
2023-05-06T21:13:41.038Z,7.83
2023-05-06T21:16:07.689Z,5.70
2023-05-06T21:18:34.405Z,5.40
2023-05-06T21:21:01.124Z,5.10
2023-05-06T21:23:27.622Z,7.00
2023-05-06T21:25:54.243Z,7.00
2023-05-06T21:28:20.866Z,5.83
2023-05-06T21:30:47.501Z,4.80
2023-05-06T21:33:14.063Z,6.93
2023-05-06T21:35:40.879Z,5.87
2023-05-06T21:38:07.432Z,6.23
2023-05-06T21:40:34.304Z,8.03
2023-05-06T21:43:02.262Z,7.10
2023-05-06T21:45:29.343Z,6.47
2023-05-06T21:47:56.138Z,5.70
2023-05-06T21:50:22.862Z,6.33
2023-05-06T21:52:49.393Z,5.67
2023-05-06T21:55:16.014Z,6.63
2023-05-06T21:57:43.889Z,5.67
2023-05-06T22:00:12.316Z,5.60
2023-05-06T22:02:40.115Z,5.10
2023-05-06T22:05:08.070Z,4.83
2023-05-06T22:07:35.862Z,5.67
2023-05-06T22:10:02.903Z,5.17
2023-05-06T22:12:30.125Z,5.40
2023-05-06T22:14:56.889Z,5.77
2023-05-06T22:17:24.237Z,4.87
2023-05-06T22:19:51.864Z,5.00
2023-05-06T22:22:19.002Z,5.47
2023-05-06T22:24:46.032Z,6.67
2023-05-06T22:27:12.587Z,4.60
2023-05-06T22:29:39.418Z,5.90
2023-05-06T22:32:06.497Z,4.20
2023-05-06T22:34:33.046Z,6.50
2023-05-06T22:37:01.014Z,5.43
2023-05-06T22:39:28.616Z,5.23
2023-05-06T22:41:55.231Z,4.93
2023-05-06T22:44:21.857Z,4.70
2023-05-06T22:46:48.527Z,5.60
2023-05-06T22:49:16.024Z,4.27
2023-05-06T22:51:42.656Z,5.53
2023-05-06T22:54:09.293Z,4.87
2023-05-06T22:56:36.101Z,4.60
2023-05-06T22:59:02.892Z,5.27
2023-05-06T23:01:32.702Z,4.90
2023-05-06T23:03:59.811Z,4.13
2023-05-06T23:06:31.129Z,4.93
2023-05-06T23:08:57.854Z,4.37
2023-05-06T23:11:24.864Z,4.70
2023-05-06T23:13:51.504Z,4.63
2023-05-06T23:16:18.102Z,4.00
2023-05-06T23:18:45.967Z,3.70
2023-05-06T23:21:12.918Z,3.40
2023-05-06T23:23:39.603Z,3.33
2023-05-06T23:26:06.306Z,3.10
2023-05-06T23:28:33.088Z,7.43
2023-05-06T23:31:00.423Z,5.97
2023-05-06T23:33:27.330Z,4.27
2023-05-06T23:35:54.079Z,4.63
2023-05-06T23:38:20.708Z,4.50
2023-05-06T23:40:47.495Z,3.40
2023-05-06T23:43:13.993Z,3.20
2023-05-06T23:45:40.740Z,3.90
2023-05-06T23:48:07.453Z,3.50
2023-05-06T23:50:34.106Z,3.23
2023-05-06T23:53:00.872Z,3.77
2023-05-06T23:55:28.195Z,4.20
2023-05-06T23:57:55.435Z,3.80
